sensor_id;sensor_type;location;lat;lon;timestamp;temperature;humidity
3944;DHT22;1986;52.546;13.428;2023-04-08T00:01:56;6.00;99.90
3944;DHT22;1986;52.546;13.428;2023-04-08T00:04:23;5.90;99.90
3944;DHT22;1986;52.546;13.428;2023-04-08T00:06:52;6.00;99.90
3944;DHT22;1986;52.546;13.428;2023-04-08T00:09:19;6.00;99.90
3944;DHT22;1986;52.546;13.428;2023-04-08T00:11:46;5.90;99.90
3944;DHT22;1986;52.546;13.428;2023-04-08T00:14:14;5.90;99.90
3944;DHT22;1986;52.546;13.428;2023-04-08T00:16:41;5.90;99.90
3944;DHT22;1986;52.546;13.428;2023-04-08T00:19:08;6.00;99.90
3944;DHT22;1986;52.546;13.428;2023-04-08T00:21:35;6.00;99.90
3944;DHT22;1986;52.546;13.428;2023-04-08T00:24:04;5.90;99.90
3944;DHT22;1986;52.546;13.428;2023-04-08T00:26:32;6.00;99.90
3944;DHT22;1986;52.546;13.428;2023-04-08T00:28:59;5.90;99.90
3944;DHT22;1986;52.546;13.428;2023-04-08T00:31:26;5.90;99.90
3944;DHT22;1986;52.546;13.428;2023-04-08T00:33:53;6.00;99.90
3944;DHT22;1986;52.546;13.428;2023-04-08T00:36:20;5.90;99.90
3944;DHT22;1986;52.546;13.428;2023-04-08T00:38:47;6.00;99.90
3944;DHT22;1986;52.546;13.428;2023-04-08T00:41:20;6.00;99.90
3944;DHT22;1986;52.546;13.428;2023-04-08T00:43:46;6.00;99.90
3944;DHT22;1986;52.546;13.428;2023-04-08T00:46:14;6.00;99.90
3944;DHT22;1986;52.546;13.428;2023-04-08T00:48:41;6.00;99.90
3944;DHT22;1986;52.546;13.428;2023-04-08T00:51:08;6.00;99.90
3944;DHT22;1986;52.546;13.428;2023-04-08T00:53:36;6.00;99.90
3944;DHT22;1986;52.546;13.428;2023-04-08T00:56:07;6.00;99.90
3944;DHT22;1986;52.546;13.428;2023-04-08T00:58:35;6.00;99.90
3944;DHT22;1986;52.546;13.428;2023-04-08T01:01:05;6.10;99.90
3944;DHT22;1986;52.546;13.428;2023-04-08T01:03:41;6.00;99.90
3944;DHT22;1986;52.546;13.428;2023-04-08T01:06:14;5.90;99.90
3944;DHT22;1986;52.546;13.428;2023-04-08T01:08:44;5.90;99.90
3944;DHT22;1986;52.546;13.428;2023-04-08T01:11:13;6.00;99.90
3944;DHT22;1986;52.546;13.428;2023-04-08T01:13:42;6.00;99.90
3944;DHT22;1986;52.546;13.428;2023-04-08T01:16:13;6.00;99.90
3944;DHT22;1986;52.546;13.428;2023-04-08T01:18:43;6.00;99.90
3944;DHT22;1986;52.546;13.428;2023-04-08T01:21:11;6.00;99.90
3944;DHT22;1986;52.546;13.428;2023-04-08T01:23:49;5.90;99.90
3944;DHT22;1986;52.546;13.428;2023-04-08T01:26:23;5.90;99.90
3944;DHT22;1986;52.546;13.428;2023-04-08T01:28:52;5.80;99.90
3944;DHT22;1986;52.546;13.428;2023-04-08T01:31:21;5.70;99.90
3944;DHT22;1986;52.546;13.428;2023-04-08T01:33:50;5.70;99.90
3944;DHT22;1986;52.546;13.428;2023-04-08T01:36:19;5.80;99.90
3944;DHT22;1986;52.546;13.428;2023-04-08T01:38:49;5.90;99.90
3944;DHT22;1986;52.546;13.428;2023-04-08T01:41:17;5.90;99.90
3944;DHT22;1986;52.546;13.428;2023-04-08T01:43:47;5.90;99.90
3944;DHT22;1986;52.546;13.428;2023-04-08T01:46:16;5.80;99.90
3944;DHT22;1986;52.546;13.428;2023-04-08T01:48:44;5.90;99.90
3944;DHT22;1986;52.546;13.428;2023-04-08T01:51:14;5.90;99.90
3944;DHT22;1986;52.546;13.428;2023-04-08T01:53:41;5.90;99.90
3944;DHT22;1986;52.546;13.428;2023-04-08T01:56:11;5.90;99.90
3944;DHT22;1986;52.546;13.428;2023-04-08T01:58:41;6.00;99.90
3944;DHT22;1986;52.546;13.428;2023-04-08T02:01:13;6.10;99.90
3944;DHT22;1986;52.546;13.428;2023-04-08T02:03:44;6.10;99.90
3944;DHT22;1986;52.546;13.428;2023-04-08T02:06:12;6.10;99.90
3944;DHT22;1986;52.546;13.428;2023-04-08T02:08:39;6.00;99.90
3944;DHT22;1986;52.546;13.428;2023-04-08T02:11:06;6.10;99.90
3944;DHT22;1986;52.546;13.428;2023-04-08T02:13:33;6.10;99.90
3944;DHT22;1986;52.546;13.428;2023-04-08T02:16:09;5.90;99.90
3944;DHT22;1986;52.546;13.428;2023-04-08T02:18:42;5.80;99.90
3944;DHT22;1986;52.546;13.428;2023-04-08T02:21:14;5.80;99.90
3944;DHT22;1986;52.546;13.428;2023-04-08T02:23:45;5.70;99.90
3944;DHT22;1986;52.546;13.428;2023-04-08T02:26:15;5.70;99.90
3944;DHT22;1986;52.546;13.428;2023-04-08T02:28:44;5.70;99.90
3944;DHT22;1986;52.546;13.428;2023-04-08T02:31:13;5.70;99.90
3944;DHT22;1986;52.546;13.428;2023-04-08T02:33:44;5.70;99.90
3944;DHT22;1986;52.546;13.428;2023-04-08T02:36:11;5.80;99.90
3944;DHT22;1986;52.546;13.428;2023-04-08T02:38:38;5.80;99.90
3944;DHT22;1986;52.546;13.428;2023-04-08T02:41:06;5.80;99.90
3944;DHT22;1986;52.546;13.428;2023-04-08T02:43:33;5.80;99.90
3944;DHT22;1986;52.546;13.428;2023-04-08T02:46:00;5.80;99.90
3944;DHT22;1986;52.546;13.428;2023-04-08T02:48:28;5.90;99.90
3944;DHT22;1986;52.546;13.428;2023-04-08T02:50:56;5.90;99.90
3944;DHT22;1986;52.546;13.428;2023-04-08T02:53:23;5.90;99.90
3944;DHT22;1986;52.546;13.428;2023-04-08T02:55:51;5.90;99.90
3944;DHT22;1986;52.546;13.428;2023-04-08T02:58:20;6.00;99.90
3944;DHT22;1986;52.546;13.428;2023-04-08T03:00:47;6.00;99.90
3944;DHT22;1986;52.546;13.428;2023-04-08T03:03:14;6.00;99.90
3944;DHT22;1986;52.546;13.428;2023-04-08T03:05:41;6.10;99.90
3944;DHT22;1986;52.546;13.428;2023-04-08T03:08:09;6.20;99.90
3944;DHT22;1986;52.546;13.428;2023-04-08T03:10:36;6.20;99.90
3944;DHT22;1986;52.546;13.428;2023-04-08T03:13:03;6.30;99.90
3944;DHT22;1986;52.546;13.428;2023-04-08T03:15:30;6.30;99.90
3944;DHT22;1986;52.546;13.428;2023-04-08T03:17:57;6.30;99.90
3944;DHT22;1986;52.546;13.428;2023-04-08T03:20:24;6.40;99.90
3944;DHT22;1986;52.546;13.428;2023-04-08T03:22:53;6.50;99.90
3944;DHT22;1986;52.546;13.428;2023-04-08T03:25:21;6.50;99.90
3944;DHT22;1986;52.546;13.428;2023-04-08T03:27:48;6.50;99.90
3944;DHT22;1986;52.546;13.428;2023-04-08T03:30:16;6.60;99.90
3944;DHT22;1986;52.546;13.428;2023-04-08T03:32:43;6.60;99.90
3944;DHT22;1986;52.546;13.428;2023-04-08T03:35:10;6.70;99.90
3944;DHT22;1986;52.546;13.428;2023-04-08T03:37:36;6.70;99.90
3944;DHT22;1986;52.546;13.428;2023-04-08T03:40:04;6.70;99.90
3944;DHT22;1986;52.546;13.428;2023-04-08T03:42:33;6.80;99.90
3944;DHT22;1986;52.546;13.428;2023-04-08T03:45:00;6.90;99.90
3944;DHT22;1986;52.546;13.428;2023-04-08T03:47:27;7.00;99.90
3944;DHT22;1986;52.546;13.428;2023-04-08T03:49:54;7.10;99.90
3944;DHT22;1986;52.546;13.428;2023-04-08T03:52:21;7.20;99.90
3944;DHT22;1986;52.546;13.428;2023-04-08T03:54:48;7.20;99.90
3944;DHT22;1986;52.546;13.428;2023-04-08T03:57:15;7.30;99.90
3944;DHT22;1986;52.546;13.428;2023-04-08T03:59:43;7.30;99.90
3944;DHT22;1986;52.546;13.428;2023-04-08T04:02:10;7.30;99.90
3944;DHT22;1986;52.546;13.428;2023-04-08T04:04:37;7.40;99.90
3944;DHT22;1986;52.546;13.428;2023-04-08T04:07:04;7.40;99.90
3944;DHT22;1986;52.546;13.428;2023-04-08T04:09:31;7.40;99.90
3944;DHT22;1986;52.546;13.428;2023-04-08T04:11:58;7.30;99.90
3944;DHT22;1986;52.546;13.428;2023-04-08T04:14:25;7.30;99.90
3944;DHT22;1986;52.546;13.428;2023-04-08T04:16:53;7.40;99.90
3944;DHT22;1986;52.546;13.428;2023-04-08T04:19:20;7.50;99.90
3944;DHT22;1986;52.546;13.428;2023-04-08T04:21:47;7.50;99.90
3944;DHT22;1986;52.546;13.428;2023-04-08T04:24:14;7.50;99.90
3944;DHT22;1986;52.546;13.428;2023-04-08T04:26:41;7.50;99.90
3944;DHT22;1986;52.546;13.428;2023-04-08T04:29:08;7.40;99.90
3944;DHT22;1986;52.546;13.428;2023-04-08T04:31:35;7.40;99.90
3944;DHT22;1986;52.546;13.428;2023-04-08T04:34:06;7.40;99.90
3944;DHT22;1986;52.546;13.428;2023-04-08T04:36:33;7.40;99.90
3944;DHT22;1986;52.546;13.428;2023-04-08T04:39:01;7.40;99.90
3944;DHT22;1986;52.546;13.428;2023-04-08T04:41:28;7.40;99.90
3944;DHT22;1986;52.546;13.428;2023-04-08T04:43:55;7.40;99.90
3944;DHT22;1986;52.546;13.428;2023-04-08T04:46:22;7.40;99.90
3944;DHT22;1986;52.546;13.428;2023-04-08T04:48:49;7.40;99.90
3944;DHT22;1986;52.546;13.428;2023-04-08T04:51:17;7.40;99.90
3944;DHT22;1986;52.546;13.428;2023-04-08T04:53:44;7.40;99.90
3944;DHT22;1986;52.546;13.428;2023-04-08T04:56:12;7.50;99.90
3944;DHT22;1986;52.546;13.428;2023-04-08T04:58:40;7.40;99.90
3944;DHT22;1986;52.546;13.428;2023-04-08T05:01:07;7.50;99.90
3944;DHT22;1986;52.546;13.428;2023-04-08T05:03:33;7.50;99.90
3944;DHT22;1986;52.546;13.428;2023-04-08T05:06:04;7.50;99.90
3944;DHT22;1986;52.546;13.428;2023-04-08T05:08:33;7.50;99.90
3944;DHT22;1986;52.546;13.428;2023-04-08T05:11:00;7.40;99.90
3944;DHT22;1986;52.546;13.428;2023-04-08T05:13:27;7.50;99.90
3944;DHT22;1986;52.546;13.428;2023-04-08T05:15:54;7.40;99.90
3944;DHT22;1986;52.546;13.428;2023-04-08T05:18:21;7.40;99.90
3944;DHT22;1986;52.546;13.428;2023-04-08T05:20:48;7.50;99.90
3944;DHT22;1986;52.546;13.428;2023-04-08T05:23:15;7.50;99.90
3944;DHT22;1986;52.546;13.428;2023-04-08T05:25:43;7.50;99.90
3944;DHT22;1986;52.546;13.428;2023-04-08T05:28:10;7.50;99.90
3944;DHT22;1986;52.546;13.428;2023-04-08T05:30:37;7.60;99.90
3944;DHT22;1986;52.546;13.428;2023-04-08T05:33:04;7.80;99.90
3944;DHT22;1986;52.546;13.428;2023-04-08T05:35:31;7.70;99.90
3944;DHT22;1986;52.546;13.428;2023-04-08T05:37:58;7.80;99.90
3944;DHT22;1986;52.546;13.428;2023-04-08T05:40:25;7.80;99.90
3944;DHT22;1986;52.546;13.428;2023-04-08T05:42:53;7.80;99.90
3944;DHT22;1986;52.546;13.428;2023-04-08T05:45:20;7.60;99.90
3944;DHT22;1986;52.546;13.428;2023-04-08T05:47:47;7.70;99.90
3944;DHT22;1986;52.546;13.428;2023-04-08T05:50:14;7.70;99.90
3944;DHT22;1986;52.546;13.428;2023-04-08T05:52:41;7.60;99.90
3944;DHT22;1986;52.546;13.428;2023-04-08T05:55:10;7.70;99.90
3944;DHT22;1986;52.546;13.428;2023-04-08T05:57:37;7.60;99.90
3944;DHT22;1986;52.546;13.428;2023-04-08T06:00:08;7.70;99.90
3944;DHT22;1986;52.546;13.428;2023-04-08T06:02:35;7.60;99.90
3944;DHT22;1986;52.546;13.428;2023-04-08T06:05:03;7.70;99.90
3944;DHT22;1986;52.546;13.428;2023-04-08T06:07:32;7.70;99.90
3944;DHT22;1986;52.546;13.428;2023-04-08T06:10:00;7.80;99.90
3944;DHT22;1986;52.546;13.428;2023-04-08T06:12:27;7.80;99.90
3944;DHT22;1986;52.546;13.428;2023-04-08T06:14:54;7.80;99.90
3944;DHT22;1986;52.546;13.428;2023-04-08T06:17:23;7.80;99.90
3944;DHT22;1986;52.546;13.428;2023-04-08T06:19:50;7.90;99.90
3944;DHT22;1986;52.546;13.428;2023-04-08T06:22:17;7.90;99.90
3944;DHT22;1986;52.546;13.428;2023-04-08T06:24:46;8.00;99.90
3944;DHT22;1986;52.546;13.428;2023-04-08T06:27:13;7.80;99.90
3944;DHT22;1986;52.546;13.428;2023-04-08T06:29:40;7.80;99.90
3944;DHT22;1986;52.546;13.428;2023-04-08T06:32:07;7.80;99.90
3944;DHT22;1986;52.546;13.428;2023-04-08T06:34:36;7.80;99.90
3944;DHT22;1986;52.546;13.428;2023-04-08T06:37:03;7.90;99.90
3944;DHT22;1986;52.546;13.428;2023-04-08T06:39:30;8.00;99.90
3944;DHT22;1986;52.546;13.428;2023-04-08T06:41:57;7.90;99.90
3944;DHT22;1986;52.546;13.428;2023-04-08T06:44:24;7.90;99.90
3944;DHT22;1986;52.546;13.428;2023-04-08T06:46:51;7.90;99.90
3944;DHT22;1986;52.546;13.428;2023-04-08T06:49:18;7.90;99.90
3944;DHT22;1986;52.546;13.428;2023-04-08T06:51:46;7.90;99.90
3944;DHT22;1986;52.546;13.428;2023-04-08T06:54:13;7.90;99.90
3944;DHT22;1986;52.546;13.428;2023-04-08T06:56:40;7.90;99.90
3944;DHT22;1986;52.546;13.428;2023-04-08T06:59:10;7.90;99.90
3944;DHT22;1986;52.546;13.428;2023-04-08T07:01:38;8.00;99.90
3944;DHT22;1986;52.546;13.428;2023-04-08T07:04:05;7.90;99.90
3944;DHT22;1986;52.546;13.428;2023-04-08T07:06:31;8.00;99.90
3944;DHT22;1986;52.546;13.428;2023-04-08T07:09:00;8.10;99.90
3944;DHT22;1986;52.546;13.428;2023-04-08T07:11:27;8.10;99.90
3944;DHT22;1986;52.546;13.428;2023-04-08T07:13:54;8.10;99.90
3944;DHT22;1986;52.546;13.428;2023-04-08T07:16:21;8.20;99.90
3944;DHT22;1986;52.546;13.428;2023-04-08T07:18:47;8.30;99.90
3944;DHT22;1986;52.546;13.428;2023-04-08T07:21:17;8.20;99.90
3944;DHT22;1986;52.546;13.428;2023-04-08T07:23:44;8.20;99.90
3944;DHT22;1986;52.546;13.428;2023-04-08T07:26:13;8.30;99.90
3944;DHT22;1986;52.546;13.428;2023-04-08T07:28:41;8.30;99.90
3944;DHT22;1986;52.546;13.428;2023-04-08T07:31:09;8.40;99.90
3944;DHT22;1986;52.546;13.428;2023-04-08T07:33:36;8.40;99.90
3944;DHT22;1986;52.546;13.428;2023-04-08T07:36:04;8.40;99.90
3944;DHT22;1986;52.546;13.428;2023-04-08T07:38:31;8.30;99.90
3944;DHT22;1986;52.546;13.428;2023-04-08T07:40:59;8.50;99.90
3944;DHT22;1986;52.546;13.428;2023-04-08T07:43:27;8.50;99.90
3944;DHT22;1986;52.546;13.428;2023-04-08T07:45:59;8.40;99.90
3944;DHT22;1986;52.546;13.428;2023-04-08T07:48:28;8.30;99.90
3944;DHT22;1986;52.546;13.428;2023-04-08T07:50:55;8.40;99.90
3944;DHT22;1986;52.546;13.428;2023-04-08T07:53:22;8.50;99.90
3944;DHT22;1986;52.546;13.428;2023-04-08T07:55:50;8.60;99.90
3944;DHT22;1986;52.546;13.428;2023-04-08T07:58:18;8.50;99.90
3944;DHT22;1986;52.546;13.428;2023-04-08T08:00:46;8.50;99.90
3944;DHT22;1986;52.546;13.428;2023-04-08T08:03:17;8.50;99.90
3944;DHT22;1986;52.546;13.428;2023-04-08T08:05:44;8.60;99.90
3944;DHT22;1986;52.546;13.428;2023-04-08T08:08:11;8.60;99.90
3944;DHT22;1986;52.546;13.428;2023-04-08T08:10:38;8.70;99.90
3944;DHT22;1986;52.546;13.428;2023-04-08T08:13:06;8.70;99.90
3944;DHT22;1986;52.546;13.428;2023-04-08T08:15:33;8.70;99.90
3944;DHT22;1986;52.546;13.428;2023-04-08T08:18:02;8.70;99.90
3944;DHT22;1986;52.546;13.428;2023-04-08T08:20:29;8.70;99.90
3944;DHT22;1986;52.546;13.428;2023-04-08T08:22:56;8.80;99.90
3944;DHT22;1986;52.546;13.428;2023-04-08T08:25:24;8.90;99.90
3944;DHT22;1986;52.546;13.428;2023-04-08T08:27:51;9.00;99.90
3944;DHT22;1986;52.546;13.428;2023-04-08T08:30:21;8.80;99.90
3944;DHT22;1986;52.546;13.428;2023-04-08T08:32:48;8.90;99.90
3944;DHT22;1986;52.546;13.428;2023-04-08T08:35:18;9.00;99.90
3944;DHT22;1986;52.546;13.428;2023-04-08T08:37:45;9.10;99.90
3944;DHT22;1986;52.546;13.428;2023-04-08T08:40:13;9.00;99.90
3944;DHT22;1986;52.546;13.428;2023-04-08T08:42:40;9.00;99.90
3944;DHT22;1986;52.546;13.428;2023-04-08T08:45:08;9.00;99.90
3944;DHT22;1986;52.546;13.428;2023-04-08T08:47:35;8.90;99.90
3944;DHT22;1986;52.546;13.428;2023-04-08T08:50:03;9.00;99.90
3944;DHT22;1986;52.546;13.428;2023-04-08T08:52:31;9.10;99.90
3944;DHT22;1986;52.546;13.428;2023-04-08T08:54:58;9.00;99.90
3944;DHT22;1986;52.546;13.428;2023-04-08T08:57:25;9.30;99.90
3944;DHT22;1986;52.546;13.428;2023-04-08T08:59:52;9.40;99.90
3944;DHT22;1986;52.546;13.428;2023-04-08T09:02:24;9.60;99.90
3944;DHT22;1986;52.546;13.428;2023-04-08T09:04:56;9.60;99.90
3944;DHT22;1986;52.546;13.428;2023-04-08T09:07:27;9.40;99.90
3944;DHT22;1986;52.546;13.428;2023-04-08T09:09:58;9.50;99.90
3944;DHT22;1986;52.546;13.428;2023-04-08T09:12:25;9.60;99.90
3944;DHT22;1986;52.546;13.428;2023-04-08T09:15:03;9.60;99.90
3944;DHT22;1986;52.546;13.428;2023-04-08T09:17:31;9.90;99.90
3944;DHT22;1986;52.546;13.428;2023-04-08T09:20:07;10.00;99.90
3944;DHT22;1986;52.546;13.428;2023-04-08T09:22:54;9.90;99.90
3944;DHT22;1986;52.546;13.428;2023-04-08T09:25:24;9.80;99.90
3944;DHT22;1986;52.546;13.428;2023-04-08T09:27:52;10.00;99.90
3944;DHT22;1986;52.546;13.428;2023-04-08T09:30:21;9.90;99.90
3944;DHT22;1986;52.546;13.428;2023-04-08T09:32:49;9.90;99.90
3944;DHT22;1986;52.546;13.428;2023-04-08T09:35:17;9.80;99.90
3944;DHT22;1986;52.546;13.428;2023-04-08T09:37:45;9.80;99.90
3944;DHT22;1986;52.546;13.428;2023-04-08T09:40:12;9.80;99.90
3944;DHT22;1986;52.546;13.428;2023-04-08T09:42:45;9.80;99.90
3944;DHT22;1986;52.546;13.428;2023-04-08T09:45:16;9.60;99.90
3944;DHT22;1986;52.546;13.428;2023-04-08T09:47:53;9.50;99.90
3944;DHT22;1986;52.546;13.428;2023-04-08T09:50:25;9.60;99.90
3944;DHT22;1986;52.546;13.428;2023-04-08T09:52:59;9.70;99.90
3944;DHT22;1986;52.546;13.428;2023-04-08T09:55:29;9.70;99.90
3944;DHT22;1986;52.546;13.428;2023-04-08T09:58:01;9.70;99.90
3944;DHT22;1986;52.546;13.428;2023-04-08T10:00:32;9.80;99.90
3944;DHT22;1986;52.546;13.428;2023-04-08T10:03:08;9.80;99.90
3944;DHT22;1986;52.546;13.428;2023-04-08T10:05:36;9.70;99.90
3944;DHT22;1986;52.546;13.428;2023-04-08T10:08:05;9.90;99.90
3944;DHT22;1986;52.546;13.428;2023-04-08T10:10:33;10.00;99.90
3944;DHT22;1986;52.546;13.428;2023-04-08T10:13:03;10.10;99.90
3944;DHT22;1986;52.546;13.428;2023-04-08T10:15:30;10.20;99.90
3944;DHT22;1986;52.546;13.428;2023-04-08T10:18:30;10.50;99.90
3944;DHT22;1986;52.546;13.428;2023-04-08T10:21:02;10.40;99.90
3944;DHT22;1986;52.546;13.428;2023-04-08T10:24:00;10.50;99.90
3944;DHT22;1986;52.546;13.428;2023-04-08T10:26:38;10.50;99.90
3944;DHT22;1986;52.546;13.428;2023-04-08T10:29:31;10.80;99.90
3944;DHT22;1986;52.546;13.428;2023-04-08T10:31:59;11.10;99.90
3944;DHT22;1986;52.546;13.428;2023-04-08T10:34:27;10.90;99.90
3944;DHT22;1986;52.546;13.428;2023-04-08T10:36:56;10.90;99.90
3944;DHT22;1986;52.546;13.428;2023-04-08T10:39:26;11.00;99.90
3944;DHT22;1986;52.546;13.428;2023-04-08T10:41:53;11.30;99.90
3944;DHT22;1986;52.546;13.428;2023-04-08T10:44:22;11.20;99.90
3944;DHT22;1986;52.546;13.428;2023-04-08T10:46:52;11.50;99.90
3944;DHT22;1986;52.546;13.428;2023-04-08T10:49:19;11.20;99.90
3944;DHT22;1986;52.546;13.428;2023-04-08T10:51:46;11.30;99.90
3944;DHT22;1986;52.546;13.428;2023-04-08T10:54:14;11.30;99.90
3944;DHT22;1986;52.546;13.428;2023-04-08T10:56:46;11.30;99.90
3944;DHT22;1986;52.546;13.428;2023-04-08T10:59:14;11.70;99.90
3944;DHT22;1986;52.546;13.428;2023-04-08T11:01:43;11.80;99.90
3944;DHT22;1986;52.546;13.428;2023-04-08T11:04:13;11.90;99.90
3944;DHT22;1986;52.546;13.428;2023-04-08T11:06:41;11.70;99.90
3944;DHT22;1986;52.546;13.428;2023-04-08T11:09:09;11.60;99.90
3944;DHT22;1986;52.546;13.428;2023-04-08T11:11:36;11.60;99.90
3944;DHT22;1986;52.546;13.428;2023-04-08T11:14:03;11.70;99.90
3944;DHT22;1986;52.546;13.428;2023-04-08T11:16:32;11.80;99.90
3944;DHT22;1986;52.546;13.428;2023-04-08T11:19:01;11.60;99.90
3944;DHT22;1986;52.546;13.428;2023-04-08T11:21:31;11.40;99.90
3944;DHT22;1986;52.546;13.428;2023-04-08T11:24:05;11.60;99.90
3944;DHT22;1986;52.546;13.428;2023-04-08T11:26:36;11.80;99.90
3944;DHT22;1986;52.546;13.428;2023-04-08T11:29:03;11.80;99.90
3944;DHT22;1986;52.546;13.428;2023-04-08T11:31:31;11.90;99.90
3944;DHT22;1986;52.546;13.428;2023-04-08T11:33:58;12.00;99.90
3944;DHT22;1986;52.546;13.428;2023-04-08T11:36:28;11.70;99.90
3944;DHT22;1986;52.546;13.428;2023-04-08T11:38:56;11.80;99.90
3944;DHT22;1986;52.546;13.428;2023-04-08T11:41:23;11.60;99.90
3944;DHT22;1986;52.546;13.428;2023-04-08T11:43:55;11.80;99.90
3944;DHT22;1986;52.546;13.428;2023-04-08T11:46:22;11.80;99.90
3944;DHT22;1986;52.546;13.428;2023-04-08T11:48:59;11.50;99.90
3944;DHT22;1986;52.546;13.428;2023-04-08T11:51:27;11.60;99.90
3944;DHT22;1986;52.546;13.428;2023-04-08T11:53:56;11.70;99.90
3944;DHT22;1986;52.546;13.428;2023-04-08T11:56:23;11.70;99.90
3944;DHT22;1986;52.546;13.428;2023-04-08T11:58:51;11.70;99.90
3944;DHT22;1986;52.546;13.428;2023-04-08T12:01:18;11.80;99.90
3944;DHT22;1986;52.546;13.428;2023-04-08T12:03:59;11.60;99.90
3944;DHT22;1986;52.546;13.428;2023-04-08T12:06:27;11.70;99.90
3944;DHT22;1986;52.546;13.428;2023-04-08T12:08:56;11.80;99.90
3944;DHT22;1986;52.546;13.428;2023-04-08T12:11:24;11.70;99.90
3944;DHT22;1986;52.546;13.428;2023-04-08T12:14:05;11.70;99.90
3944;DHT22;1986;52.546;13.428;2023-04-08T12:16:32;11.90;99.90
3944;DHT22;1986;52.546;13.428;2023-04-08T12:18:59;12.10;99.90
3944;DHT22;1986;52.546;13.428;2023-04-08T12:21:29;12.10;99.90
3944;DHT22;1986;52.546;13.428;2023-04-08T12:23:58;12.20;99.90
3944;DHT22;1986;52.546;13.428;2023-04-08T12:26:25;12.30;99.90
3944;DHT22;1986;52.546;13.428;2023-04-08T12:28:52;12.40;99.90
3944;DHT22;1986;52.546;13.428;2023-04-08T12:31:19;12.20;99.90
3944;DHT22;1986;52.546;13.428;2023-04-08T12:33:47;12.30;99.90
3944;DHT22;1986;52.546;13.428;2023-04-08T12:36:14;12.20;99.90
3944;DHT22;1986;52.546;13.428;2023-04-08T12:38:41;12.10;99.90
3944;DHT22;1986;52.546;13.428;2023-04-08T12:41:10;12.50;99.90
3944;DHT22;1986;52.546;13.428;2023-04-08T12:43:37;12.70;99.90
3944;DHT22;1986;52.546;13.428;2023-04-08T12:46:05;12.90;99.90
3944;DHT22;1986;52.546;13.428;2023-04-08T12:48:32;12.80;99.90
3944;DHT22;1986;52.546;13.428;2023-04-08T12:50:59;12.50;99.90
3944;DHT22;1986;52.546;13.428;2023-04-08T12:53:26;12.50;99.90
3944;DHT22;1986;52.546;13.428;2023-04-08T12:55:53;12.40;99.90
3944;DHT22;1986;52.546;13.428;2023-04-08T12:58:23;12.50;99.90
3944;DHT22;1986;52.546;13.428;2023-04-08T13:00:56;12.40;99.90
3944;DHT22;1986;52.546;13.428;2023-04-08T13:03:50;12.40;99.90
3944;DHT22;1986;52.546;13.428;2023-04-08T13:06:18;12.40;99.90
3944;DHT22;1986;52.546;13.428;2023-04-08T13:08:45;12.50;99.90
3944;DHT22;1986;52.546;13.428;2023-04-08T13:11:13;12.60;99.90
3944;DHT22;1986;52.546;13.428;2023-04-08T13:13:42;12.50;99.90
3944;DHT22;1986;52.546;13.428;2023-04-08T13:16:11;12.40;99.90
3944;DHT22;1986;52.546;13.428;2023-04-08T13:18:38;12.30;99.90
3944;DHT22;1986;52.546;13.428;2023-04-08T13:21:07;12.70;99.90
3944;DHT22;1986;52.546;13.428;2023-04-08T13:23:34;12.80;99.90
3944;DHT22;1986;52.546;13.428;2023-04-08T13:26:01;12.90;99.90
3944;DHT22;1986;52.546;13.428;2023-04-08T13:28:28;13.20;99.90
3944;DHT22;1986;52.546;13.428;2023-04-08T13:30:56;13.20;99.90
3944;DHT22;1986;52.546;13.428;2023-04-08T13:33:23;12.90;99.90
3944;DHT22;1986;52.546;13.428;2023-04-08T13:35:50;13.00;99.90
3944;DHT22;1986;52.546;13.428;2023-04-08T13:38:17;13.10;99.90
3944;DHT22;1986;52.546;13.428;2023-04-08T13:40:44;13.30;99.90
3944;DHT22;1986;52.546;13.428;2023-04-08T13:43:11;13.20;99.90
3944;DHT22;1986;52.546;13.428;2023-04-08T13:45:39;13.20;99.90
3944;DHT22;1986;52.546;13.428;2023-04-08T13:48:07;13.30;99.90
3944;DHT22;1986;52.546;13.428;2023-04-08T13:50:34;13.20;99.90
3944;DHT22;1986;52.546;13.428;2023-04-08T13:53:01;13.40;99.90
3944;DHT22;1986;52.546;13.428;2023-04-08T13:55:31;13.60;99.90
3944;DHT22;1986;52.546;13.428;2023-04-08T13:57:58;13.60;99.90
3944;DHT22;1986;52.546;13.428;2023-04-08T14:00:29;13.80;99.90
3944;DHT22;1986;52.546;13.428;2023-04-08T14:02:59;13.70;99.90
3944;DHT22;1986;52.546;13.428;2023-04-08T14:05:27;13.50;99.90
3944;DHT22;1986;52.546;13.428;2023-04-08T14:07:54;13.40;99.90
3944;DHT22;1986;52.546;13.428;2023-04-08T14:10:21;13.30;99.90
3944;DHT22;1986;52.546;13.428;2023-04-08T14:12:48;13.30;99.90
3944;DHT22;1986;52.546;13.428;2023-04-08T14:15:15;13.10;99.90
3944;DHT22;1986;52.546;13.428;2023-04-08T14:17:42;12.90;99.90
3944;DHT22;1986;52.546;13.428;2023-04-08T14:20:09;12.90;99.90
3944;DHT22;1986;52.546;13.428;2023-04-08T14:22:38;12.80;99.90
3944;DHT22;1986;52.546;13.428;2023-04-08T14:25:05;12.80;99.90
3944;DHT22;1986;52.546;13.428;2023-04-08T14:27:32;12.90;99.90
3944;DHT22;1986;52.546;13.428;2023-04-08T14:29:59;13.00;99.90
3944;DHT22;1986;52.546;13.428;2023-04-08T14:32:26;13.10;99.90
3944;DHT22;1986;52.546;13.428;2023-04-08T14:34:53;13.30;99.90
3944;DHT22;1986;52.546;13.428;2023-04-08T14:37:20;13.40;99.90
3944;DHT22;1986;52.546;13.428;2023-04-08T14:39:49;13.30;99.90
3944;DHT22;1986;52.546;13.428;2023-04-08T14:42:18;13.30;99.90
3944;DHT22;1986;52.546;13.428;2023-04-08T14:44:47;13.40;99.90
3944;DHT22;1986;52.546;13.428;2023-04-08T14:47:13;13.30;99.90
3944;DHT22;1986;52.546;13.428;2023-04-08T14:49:42;13.50;99.90
3944;DHT22;1986;52.546;13.428;2023-04-08T14:52:09;13.80;99.90
3944;DHT22;1986;52.546;13.428;2023-04-08T14:54:38;13.60;99.90
3944;DHT22;1986;52.546;13.428;2023-04-08T14:57:07;13.70;99.90
3944;DHT22;1986;52.546;13.428;2023-04-08T14:59:38;13.50;99.90
3944;DHT22;1986;52.546;13.428;2023-04-08T15:02:06;13.50;99.90
3944;DHT22;1986;52.546;13.428;2023-04-08T15:04:33;13.50;99.90
3944;DHT22;1986;52.546;13.428;2023-04-08T15:07:00;13.40;99.90
3944;DHT22;1986;52.546;13.428;2023-04-08T15:09:28;13.40;99.90
3944;DHT22;1986;52.546;13.428;2023-04-08T15:11:55;13.40;99.90
3944;DHT22;1986;52.546;13.428;2023-04-08T15:14:24;13.40;99.90
3944;DHT22;1986;52.546;13.428;2023-04-08T15:16:53;13.40;99.90
3944;DHT22;1986;52.546;13.428;2023-04-08T15:19:24;13.40;99.90
3944;DHT22;1986;52.546;13.428;2023-04-08T15:21:51;13.50;99.90
3944;DHT22;1986;52.546;13.428;2023-04-08T15:24:22;13.40;99.90
3944;DHT22;1986;52.546;13.428;2023-04-08T15:26:49;13.40;99.90
3944;DHT22;1986;52.546;13.428;2023-04-08T15:29:16;13.40;99.90
3944;DHT22;1986;52.546;13.428;2023-04-08T15:31:54;13.50;99.90
3944;DHT22;1986;52.546;13.428;2023-04-08T15:34:22;13.60;99.90
3944;DHT22;1986;52.546;13.428;2023-04-08T15:36:50;13.60;99.90
3944;DHT22;1986;52.546;13.428;2023-04-08T15:39:19;13.80;99.90
3944;DHT22;1986;52.546;13.428;2023-04-08T15:41:47;13.60;99.90
3944;DHT22;1986;52.546;13.428;2023-04-08T15:44:14;13.70;99.90
3944;DHT22;1986;52.546;13.428;2023-04-08T15:46:43;13.70;99.90
3944;DHT22;1986;52.546;13.428;2023-04-08T15:49:13;13.50;99.90
3944;DHT22;1986;52.546;13.428;2023-04-08T15:51:40;13.40;99.90
3944;DHT22;1986;52.546;13.428;2023-04-08T15:54:09;13.30;99.90
3944;DHT22;1986;52.546;13.428;2023-04-08T15:56:36;13.30;99.90
3944;DHT22;1986;52.546;13.428;2023-04-08T15:59:03;13.30;99.90
3944;DHT22;1986;52.546;13.428;2023-04-08T16:01:31;13.20;99.90
3944;DHT22;1986;52.546;13.428;2023-04-08T16:03:58;13.20;99.90